sensor_id;sensor_type;location;lat;lon;timestamp;temperature;humidity
4757;DHT22;2392;52.578;13.426;2023-06-22T00:01:20;21.50;99.90
4757;DHT22;2392;52.578;13.426;2023-06-22T00:03:48;21.40;99.90
4757;DHT22;2392;52.578;13.426;2023-06-22T00:06:15;21.40;99.90
4757;DHT22;2392;52.578;13.426;2023-06-22T00:08:42;21.40;99.90
4757;DHT22;2392;52.578;13.426;2023-06-22T00:11:09;21.40;99.90
4757;DHT22;2392;52.578;13.426;2023-06-22T00:13:38;21.40;99.90
4757;DHT22;2392;52.578;13.426;2023-06-22T00:16:05;21.40;99.90
4757;DHT22;2392;52.578;13.426;2023-06-22T00:18:32;21.30;99.90
4757;DHT22;2392;52.578;13.426;2023-06-22T00:21:00;21.30;99.90
4757;DHT22;2392;52.578;13.426;2023-06-22T00:23:27;21.30;99.90
4757;DHT22;2392;52.578;13.426;2023-06-22T00:25:54;21.30;99.90
4757;DHT22;2392;52.578;13.426;2023-06-22T00:28:21;21.30;99.90
4757;DHT22;2392;52.578;13.426;2023-06-22T00:30:50;21.20;99.90
4757;DHT22;2392;52.578;13.426;2023-06-22T00:33:18;21.20;99.90
4757;DHT22;2392;52.578;13.426;2023-06-22T00:35:45;21.20;99.90
4757;DHT22;2392;52.578;13.426;2023-06-22T00:38:12;21.20;99.90
4757;DHT22;2392;52.578;13.426;2023-06-22T00:40:41;21.10;99.90
4757;DHT22;2392;52.578;13.426;2023-06-22T00:43:08;21.10;99.90
4757;DHT22;2392;52.578;13.426;2023-06-22T00:45:35;21.10;99.90
4757;DHT22;2392;52.578;13.426;2023-06-22T00:48:04;21.10;99.90
4757;DHT22;2392;52.578;13.426;2023-06-22T00:50:32;21.00;99.90
4757;DHT22;2392;52.578;13.426;2023-06-22T00:53:04;21.00;99.90
4757;DHT22;2392;52.578;13.426;2023-06-22T00:55:35;21.00;99.90
4757;DHT22;2392;52.578;13.426;2023-06-22T00:58:04;21.00;99.90
4757;DHT22;2392;52.578;13.426;2023-06-22T01:00:36;20.90;99.90
4757;DHT22;2392;52.578;13.426;2023-06-22T01:03:04;20.90;99.90
4757;DHT22;2392;52.578;13.426;2023-06-22T01:05:35;20.90;99.90
4757;DHT22;2392;52.578;13.426;2023-06-22T01:08:11;20.80;99.90
4757;DHT22;2392;52.578;13.426;2023-06-22T01:10:43;20.70;99.90
4757;DHT22;2392;52.578;13.426;2023-06-22T01:13:18;20.70;99.90
4757;DHT22;2392;52.578;13.426;2023-06-22T01:15:51;20.60;99.90
4757;DHT22;2392;52.578;13.426;2023-06-22T01:18:22;20.60;99.90
4757;DHT22;2392;52.578;13.426;2023-06-22T01:20:52;20.50;99.90
4757;DHT22;2392;52.578;13.426;2023-06-22T01:23:27;20.50;99.90
4757;DHT22;2392;52.578;13.426;2023-06-22T01:26:02;20.40;99.90
4757;DHT22;2392;52.578;13.426;2023-06-22T01:28:48;20.40;99.90
4757;DHT22;2392;52.578;13.426;2023-06-22T01:31:18;20.40;99.90
4757;DHT22;2392;52.578;13.426;2023-06-22T01:33:50;20.30;99.90
4757;DHT22;2392;52.578;13.426;2023-06-22T01:36:18;20.40;99.90
4757;DHT22;2392;52.578;13.426;2023-06-22T01:38:47;20.40;99.90
4757;DHT22;2392;52.578;13.426;2023-06-22T01:41:14;20.30;99.90
4757;DHT22;2392;52.578;13.426;2023-06-22T01:43:42;20.30;99.90
4757;DHT22;2392;52.578;13.426;2023-06-22T01:46:12;20.30;99.90
4757;DHT22;2392;52.578;13.426;2023-06-22T01:48:39;20.20;99.90
4757;DHT22;2392;52.578;13.426;2023-06-22T01:51:06;20.10;99.90
4757;DHT22;2392;52.578;13.426;2023-06-22T01:53:34;20.00;99.90
4757;DHT22;2392;52.578;13.426;2023-06-22T01:56:01;19.90;99.90
4757;DHT22;2392;52.578;13.426;2023-06-22T01:58:30;19.90;99.90
4757;DHT22;2392;52.578;13.426;2023-06-22T02:01:00;19.90;99.90
4757;DHT22;2392;52.578;13.426;2023-06-22T02:03:37;19.90;99.90
4757;DHT22;2392;52.578;13.426;2023-06-22T02:06:06;19.90;99.90
4757;DHT22;2392;52.578;13.426;2023-06-22T02:08:40;19.90;99.90
4757;DHT22;2392;52.578;13.426;2023-06-22T02:11:09;19.90;99.90
4757;DHT22;2392;52.578;13.426;2023-06-22T02:13:37;20.00;99.90
4757;DHT22;2392;52.578;13.426;2023-06-22T02:16:09;20.00;99.90
4757;DHT22;2392;52.578;13.426;2023-06-22T02:18:37;20.00;99.90
4757;DHT22;2392;52.578;13.426;2023-06-22T02:21:06;20.00;99.90
4757;DHT22;2392;52.578;13.426;2023-06-22T02:23:33;20.00;99.90
4757;DHT22;2392;52.578;13.426;2023-06-22T02:26:02;20.00;99.90
4757;DHT22;2392;52.578;13.426;2023-06-22T02:28:31;20.00;99.90
4757;DHT22;2392;52.578;13.426;2023-06-22T02:30:58;20.00;99.90
4757;DHT22;2392;52.578;13.426;2023-06-22T02:33:25;20.00;99.90
4757;DHT22;2392;52.578;13.426;2023-06-22T02:35:54;19.90;99.90
4757;DHT22;2392;52.578;13.426;2023-06-22T02:38:22;19.80;99.90
4757;DHT22;2392;52.578;13.426;2023-06-22T02:40:51;19.80;99.90
4757;DHT22;2392;52.578;13.426;2023-06-22T02:43:18;19.70;99.90
4757;DHT22;2392;52.578;13.426;2023-06-22T02:45:45;19.70;99.90
4757;DHT22;2392;52.578;13.426;2023-06-22T02:48:12;19.60;99.90
4757;DHT22;2392;52.578;13.426;2023-06-22T02:50:39;19.60;99.90
4757;DHT22;2392;52.578;13.426;2023-06-22T02:53:07;19.50;99.90
4757;DHT22;2392;52.578;13.426;2023-06-22T02:55:38;19.60;99.90
4757;DHT22;2392;52.578;13.426;2023-06-22T02:58:05;19.60;99.90
4757;DHT22;2392;52.578;13.426;2023-06-22T03:00:36;19.70;99.90
4757;DHT22;2392;52.578;13.426;2023-06-22T03:03:05;19.70;99.90
4757;DHT22;2392;52.578;13.426;2023-06-22T03:05:32;19.70;99.90
4757;DHT22;2392;52.578;13.426;2023-06-22T03:08:01;19.70;99.90
4757;DHT22;2392;52.578;13.426;2023-06-22T03:10:33;19.70;99.90
4757;DHT22;2392;52.578;13.426;2023-06-22T03:13:00;19.70;99.90
4757;DHT22;2392;52.578;13.426;2023-06-22T03:15:27;19.70;99.90
4757;DHT22;2392;52.578;13.426;2023-06-22T03:17:55;19.70;99.90
4757;DHT22;2392;52.578;13.426;2023-06-22T03:20:23;19.70;99.90
4757;DHT22;2392;52.578;13.426;2023-06-22T03:22:50;19.70;99.90
4757;DHT22;2392;52.578;13.426;2023-06-22T03:25:18;19.70;99.90
4757;DHT22;2392;52.578;13.426;2023-06-22T03:27:49;19.70;99.90
4757;DHT22;2392;52.578;13.426;2023-06-22T03:30:16;19.80;99.90
4757;DHT22;2392;52.578;13.426;2023-06-22T03:32:45;19.80;99.90
4757;DHT22;2392;52.578;13.426;2023-06-22T03:35:12;19.80;99.90
4757;DHT22;2392;52.578;13.426;2023-06-22T03:37:40;19.80;99.90
4757;DHT22;2392;52.578;13.426;2023-06-22T03:40:08;19.70;99.90
4757;DHT22;2392;52.578;13.426;2023-06-22T03:42:36;19.70;99.90
4757;DHT22;2392;52.578;13.426;2023-06-22T03:45:06;19.70;99.90
4757;DHT22;2392;52.578;13.426;2023-06-22T03:47:33;19.70;99.90
4757;DHT22;2392;52.578;13.426;2023-06-22T03:50:00;19.70;99.90
4757;DHT22;2392;52.578;13.426;2023-06-22T03:52:29;19.70;99.90
4757;DHT22;2392;52.578;13.426;2023-06-22T03:54:56;19.70;99.90
4757;DHT22;2392;52.578;13.426;2023-06-22T03:57:23;19.70;99.90
4757;DHT22;2392;52.578;13.426;2023-06-22T03:59:50;19.70;99.90
4757;DHT22;2392;52.578;13.426;2023-06-22T04:02:18;19.70;99.90
4757;DHT22;2392;52.578;13.426;2023-06-22T04:04:45;19.70;99.90
4757;DHT22;2392;52.578;13.426;2023-06-22T04:07:12;19.70;99.90
4757;DHT22;2392;52.578;13.426;2023-06-22T04:09:39;19.70;99.90
4757;DHT22;2392;52.578;13.426;2023-06-22T04:12:07;19.70;99.90
4757;DHT22;2392;52.578;13.426;2023-06-22T04:14:34;19.70;99.90
4757;DHT22;2392;52.578;13.426;2023-06-22T04:17:01;19.70;99.90
4757;DHT22;2392;52.578;13.426;2023-06-22T04:19:30;19.70;99.90
4757;DHT22;2392;52.578;13.426;2023-06-22T04:21:57;19.70;99.90
4757;DHT22;2392;52.578;13.426;2023-06-22T04:24:23;19.70;99.90
4757;DHT22;2392;52.578;13.426;2023-06-22T04:26:50;19.80;99.90
4757;DHT22;2392;52.578;13.426;2023-06-22T04:29:20;19.70;99.90
4757;DHT22;2392;52.578;13.426;2023-06-22T04:31:54;19.70;99.90
4757;DHT22;2392;52.578;13.426;2023-06-22T04:34:23;19.70;99.90
4757;DHT22;2392;52.578;13.426;2023-06-22T04:36:53;19.70;99.90
4757;DHT22;2392;52.578;13.426;2023-06-22T04:39:20;19.80;99.90
4757;DHT22;2392;52.578;13.426;2023-06-22T04:41:47;19.80;99.90
4757;DHT22;2392;52.578;13.426;2023-06-22T04:44:15;19.90;99.90
4757;DHT22;2392;52.578;13.426;2023-06-22T04:46:49;19.90;99.90
4757;DHT22;2392;52.578;13.426;2023-06-22T04:49:20;20.00;99.90
4757;DHT22;2392;52.578;13.426;2023-06-22T04:51:48;20.00;99.90
4757;DHT22;2392;52.578;13.426;2023-06-22T04:54:18;20.00;99.90
4757;DHT22;2392;52.578;13.426;2023-06-22T04:56:45;20.00;99.90
4757;DHT22;2392;52.578;13.426;2023-06-22T04:59:14;20.10;99.90
4757;DHT22;2392;52.578;13.426;2023-06-22T05:01:44;20.20;99.90
4757;DHT22;2392;52.578;13.426;2023-06-22T05:04:11;20.30;99.90
4757;DHT22;2392;52.578;13.426;2023-06-22T05:06:38;20.30;99.90
4757;DHT22;2392;52.578;13.426;2023-06-22T05:09:05;20.40;99.90
4757;DHT22;2392;52.578;13.426;2023-06-22T05:11:33;20.50;99.90
4757;DHT22;2392;52.578;13.426;2023-06-22T05:14:00;20.60;99.90
4757;DHT22;2392;52.578;13.426;2023-06-22T05:16:27;20.60;99.90
4757;DHT22;2392;52.578;13.426;2023-06-22T05:18:55;20.70;99.90
4757;DHT22;2392;52.578;13.426;2023-06-22T05:21:22;20.80;99.90
4757;DHT22;2392;52.578;13.426;2023-06-22T05:23:50;20.90;99.90
4757;DHT22;2392;52.578;13.426;2023-06-22T05:26:17;21.00;99.90
4757;DHT22;2392;52.578;13.426;2023-06-22T05:28:47;21.10;99.90
4757;DHT22;2392;52.578;13.426;2023-06-22T05:31:14;21.20;99.90
4757;DHT22;2392;52.578;13.426;2023-06-22T05:33:42;21.30;99.90
4757;DHT22;2392;52.578;13.426;2023-06-22T05:36:10;21.40;99.90
4757;DHT22;2392;52.578;13.426;2023-06-22T05:38:38;21.50;99.90
4757;DHT22;2392;52.578;13.426;2023-06-22T05:41:05;21.60;99.90
4757;DHT22;2392;52.578;13.426;2023-06-22T05:43:32;21.60;99.90
4757;DHT22;2392;52.578;13.426;2023-06-22T05:46:01;21.70;99.90
4757;DHT22;2392;52.578;13.426;2023-06-22T05:48:28;21.70;99.90
4757;DHT22;2392;52.578;13.426;2023-06-22T05:50:55;21.80;99.90
4757;DHT22;2392;52.578;13.426;2023-06-22T05:53:22;21.80;99.90
4757;DHT22;2392;52.578;13.426;2023-06-22T05:55:49;21.90;99.90
4757;DHT22;2392;52.578;13.426;2023-06-22T05:58:16;21.90;99.90
4757;DHT22;2392;52.578;13.426;2023-06-22T06:00:43;21.90;99.90
4757;DHT22;2392;52.578;13.426;2023-06-22T06:03:12;22.00;99.90
4757;DHT22;2392;52.578;13.426;2023-06-22T06:05:43;22.00;99.90
4757;DHT22;2392;52.578;13.426;2023-06-22T06:08:10;22.10;99.90
4757;DHT22;2392;52.578;13.426;2023-06-22T06:10:38;22.20;99.90
4757;DHT22;2392;52.578;13.426;2023-06-22T06:13:05;22.20;99.90
4757;DHT22;2392;52.578;13.426;2023-06-22T06:15:33;22.20;99.90
4757;DHT22;2392;52.578;13.426;2023-06-22T06:18:00;22.20;99.90
4757;DHT22;2392;52.578;13.426;2023-06-22T06:20:29;22.20;99.90
4757;DHT22;2392;52.578;13.426;2023-06-22T06:22:56;22.20;99.90
4757;DHT22;2392;52.578;13.426;2023-06-22T06:25:23;22.20;99.90
4757;DHT22;2392;52.578;13.426;2023-06-22T06:27:51;22.20;99.90
4757;DHT22;2392;52.578;13.426;2023-06-22T06:30:20;22.30;99.90
4757;DHT22;2392;52.578;13.426;2023-06-22T06:32:47;22.30;99.90
4757;DHT22;2392;52.578;13.426;2023-06-22T06:35:15;22.30;99.90
4757;DHT22;2392;52.578;13.426;2023-06-22T06:37:45;22.40;99.90
4757;DHT22;2392;52.578;13.426;2023-06-22T06:40:13;22.40;99.90
4757;DHT22;2392;52.578;13.426;2023-06-22T06:42:41;22.50;99.90
4757;DHT22;2392;52.578;13.426;2023-06-22T06:45:10;22.50;99.90
4757;DHT22;2392;52.578;13.426;2023-06-22T06:47:37;22.60;99.90
4757;DHT22;2392;52.578;13.426;2023-06-22T06:50:06;22.70;99.90
4757;DHT22;2392;52.578;13.426;2023-06-22T06:52:33;22.70;99.90
4757;DHT22;2392;52.578;13.426;2023-06-22T06:55:02;22.80;99.90
4757;DHT22;2392;52.578;13.426;2023-06-22T06:57:30;22.80;99.90
4757;DHT22;2392;52.578;13.426;2023-06-22T06:59:58;22.90;99.90
4757;DHT22;2392;52.578;13.426;2023-06-22T07:02:25;23.00;99.90
4757;DHT22;2392;52.578;13.426;2023-06-22T07:04:53;23.00;99.90
4757;DHT22;2392;52.578;13.426;2023-06-22T07:07:23;23.10;99.90
4757;DHT22;2392;52.578;13.426;2023-06-22T07:09:50;23.10;99.90
4757;DHT22;2392;52.578;13.426;2023-06-22T07:12:19;23.20;99.90
4757;DHT22;2392;52.578;13.426;2023-06-22T07:14:46;23.20;99.90
4757;DHT22;2392;52.578;13.426;2023-06-22T07:17:14;23.30;99.90
4757;DHT22;2392;52.578;13.426;2023-06-22T07:19:40;23.40;99.90
4757;DHT22;2392;52.578;13.426;2023-06-22T07:22:09;23.50;99.90
4757;DHT22;2392;52.578;13.426;2023-06-22T07:24:36;23.60;99.90
4757;DHT22;2392;52.578;13.426;2023-06-22T07:27:04;23.70;99.90
4757;DHT22;2392;52.578;13.426;2023-06-22T07:29:33;23.80;99.90
4757;DHT22;2392;52.578;13.426;2023-06-22T07:32:01;23.90;99.90
4757;DHT22;2392;52.578;13.426;2023-06-22T07:34:30;23.90;99.90
4757;DHT22;2392;52.578;13.426;2023-06-22T07:36:57;24.00;99.90
4757;DHT22;2392;52.578;13.426;2023-06-22T07:39:24;24.10;99.90
4757;DHT22;2392;52.578;13.426;2023-06-22T07:41:52;24.20;99.90
4757;DHT22;2392;52.578;13.426;2023-06-22T07:44:19;24.30;99.90
4757;DHT22;2392;52.578;13.426;2023-06-22T07:46:47;24.40;99.90
4757;DHT22;2392;52.578;13.426;2023-06-22T07:49:14;24.50;99.90
4757;DHT22;2392;52.578;13.426;2023-06-22T07:51:42;24.50;99.90
4757;DHT22;2392;52.578;13.426;2023-06-22T07:54:09;24.60;99.90
4757;DHT22;2392;52.578;13.426;2023-06-22T07:56:36;24.70;99.90
4757;DHT22;2392;52.578;13.426;2023-06-22T07:59:03;24.90;99.90
4757;DHT22;2392;52.578;13.426;2023-06-22T08:01:30;25.00;99.90
4757;DHT22;2392;52.578;13.426;2023-06-22T08:03:59;25.10;99.90
4757;DHT22;2392;52.578;13.426;2023-06-22T08:06:26;25.10;99.90
4757;DHT22;2392;52.578;13.426;2023-06-22T08:08:53;25.20;99.90
4757;DHT22;2392;52.578;13.426;2023-06-22T08:11:24;25.30;99.90
4757;DHT22;2392;52.578;13.426;2023-06-22T08:13:51;25.40;99.90
4757;DHT22;2392;52.578;13.426;2023-06-22T08:16:21;25.50;99.90
4757;DHT22;2392;52.578;13.426;2023-06-22T08:18:48;25.50;99.90
4757;DHT22;2392;52.578;13.426;2023-06-22T08:21:16;25.60;99.90
4757;DHT22;2392;52.578;13.426;2023-06-22T08:23:43;25.60;99.90
4757;DHT22;2392;52.578;13.426;2023-06-22T08:26:10;25.70;99.90
4757;DHT22;2392;52.578;13.426;2023-06-22T08:28:37;25.70;99.90
4757;DHT22;2392;52.578;13.426;2023-06-22T08:31:04;25.70;99.90
4757;DHT22;2392;52.578;13.426;2023-06-22T08:33:31;25.70;99.90
4757;DHT22;2392;52.578;13.426;2023-06-22T08:35:58;25.60;99.90
4757;DHT22;2392;52.578;13.426;2023-06-22T08:38:27;25.70;99.90
4757;DHT22;2392;52.578;13.426;2023-06-22T08:40:54;25.60;99.90
4757;DHT22;2392;52.578;13.426;2023-06-22T08:43:21;25.60;99.90
4757;DHT22;2392;52.578;13.426;2023-06-22T08:45:47;25.70;99.90
4757;DHT22;2392;52.578;13.426;2023-06-22T08:48:14;25.70;99.90
4757;DHT22;2392;52.578;13.426;2023-06-22T08:50:41;25.80;99.90
4757;DHT22;2392;52.578;13.426;2023-06-22T08:53:08;25.90;99.90
4757;DHT22;2392;52.578;13.426;2023-06-22T08:55:37;25.90;99.90
4757;DHT22;2392;52.578;13.426;2023-06-22T08:58:04;26.00;99.90
4757;DHT22;2392;52.578;13.426;2023-06-22T09:00:32;26.00;99.90
4757;DHT22;2392;52.578;13.426;2023-06-22T09:03:00;26.00;99.90
4757;DHT22;2392;52.578;13.426;2023-06-22T09:05:27;26.00;99.90
4757;DHT22;2392;52.578;13.426;2023-06-22T09:07:56;26.00;99.90
4757;DHT22;2392;52.578;13.426;2023-06-22T09:10:24;25.90;99.90
4757;DHT22;2392;52.578;13.426;2023-06-22T09:12:52;26.00;99.90
4757;DHT22;2392;52.578;13.426;2023-06-22T09:15:19;26.00;99.90
4757;DHT22;2392;52.578;13.426;2023-06-22T09:17:47;26.10;99.90
4757;DHT22;2392;52.578;13.426;2023-06-22T09:20:14;26.30;99.90
4757;DHT22;2392;52.578;13.426;2023-06-22T09:22:41;26.50;99.90
4757;DHT22;2392;52.578;13.426;2023-06-22T09:25:08;26.60;99.90
4757;DHT22;2392;52.578;13.426;2023-06-22T09:27:36;26.70;99.90
4757;DHT22;2392;52.578;13.426;2023-06-22T09:30:05;26.90;99.90
4757;DHT22;2392;52.578;13.426;2023-06-22T09:32:33;27.00;99.90
4757;DHT22;2392;52.578;13.426;2023-06-22T09:35:03;27.20;99.90
4757;DHT22;2392;52.578;13.426;2023-06-22T09:37:32;27.20;99.90
4757;DHT22;2392;52.578;13.426;2023-06-22T09:39:59;27.30;99.90
4757;DHT22;2392;52.578;13.426;2023-06-22T09:42:26;27.40;99.90
4757;DHT22;2392;52.578;13.426;2023-06-22T09:44:52;27.50;99.90
4757;DHT22;2392;52.578;13.426;2023-06-22T09:47:21;27.60;99.90
4757;DHT22;2392;52.578;13.426;2023-06-22T09:49:48;27.70;99.90
4757;DHT22;2392;52.578;13.426;2023-06-22T09:52:15;27.80;99.90
4757;DHT22;2392;52.578;13.426;2023-06-22T09:54:42;27.90;99.90
4757;DHT22;2392;52.578;13.426;2023-06-22T09:57:09;28.10;99.90
4757;DHT22;2392;52.578;13.426;2023-06-22T09:59:36;28.20;99.90
4757;DHT22;2392;52.578;13.426;2023-06-22T10:02:04;28.20;99.90
4757;DHT22;2392;52.578;13.426;2023-06-22T10:04:32;28.30;99.30
4757;DHT22;2392;52.578;13.426;2023-06-22T10:06:59;28.40;99.40
4757;DHT22;2392;52.578;13.426;2023-06-22T10:09:26;28.40;98.60
4757;DHT22;2392;52.578;13.426;2023-06-22T10:11:53;28.60;99.20
4757;DHT22;2392;52.578;13.426;2023-06-22T10:14:20;28.60;97.50
4757;DHT22;2392;52.578;13.426;2023-06-22T10:16:48;28.80;98.10
4757;DHT22;2392;52.578;13.426;2023-06-22T10:19:15;28.80;96.70
4757;DHT22;2392;52.578;13.426;2023-06-22T10:21:43;28.80;96.80
4757;DHT22;2392;52.578;13.426;2023-06-22T10:24:10;28.90;96.80
4757;DHT22;2392;52.578;13.426;2023-06-22T10:26:37;28.90;97.20
4757;DHT22;2392;52.578;13.426;2023-06-22T10:29:04;29.00;96.30
4757;DHT22;2392;52.578;13.426;2023-06-22T10:31:31;29.20;95.90
4757;DHT22;2392;52.578;13.426;2023-06-22T10:33:58;29.40;95.10
4757;DHT22;2392;52.578;13.426;2023-06-22T10:36:25;29.60;96.00
4757;DHT22;2392;52.578;13.426;2023-06-22T10:38:54;30.00;95.50
4757;DHT22;2392;52.578;13.426;2023-06-22T10:41:21;30.40;95.60
4757;DHT22;2392;52.578;13.426;2023-06-22T10:43:48;30.60;94.80
4757;DHT22;2392;52.578;13.426;2023-06-22T10:46:15;31.10;94.20
4757;DHT22;2392;52.578;13.426;2023-06-22T10:48:42;31.90;93.40
4757;DHT22;2392;52.578;13.426;2023-06-22T10:51:09;33.00;92.10
4757;DHT22;2392;52.578;13.426;2023-06-22T10:53:36;33.60;90.80
4757;DHT22;2392;52.578;13.426;2023-06-22T10:56:04;34.30;88.50
4757;DHT22;2392;52.578;13.426;2023-06-22T10:58:31;34.70;87.10
4757;DHT22;2392;52.578;13.426;2023-06-22T11:00:58;35.60;85.80
4757;DHT22;2392;52.578;13.426;2023-06-22T11:03:25;36.20;82.00
4757;DHT22;2392;52.578;13.426;2023-06-22T11:05:52;36.50;79.00
4757;DHT22;2392;52.578;13.426;2023-06-22T11:08:19;36.10;77.90
4757;DHT22;2392;52.578;13.426;2023-06-22T11:10:46;35.40;77.70
4757;DHT22;2392;52.578;13.426;2023-06-22T11:13:14;35.10;79.30
4757;DHT22;2392;52.578;13.426;2023-06-22T11:15:41;34.90;78.90
4757;DHT22;2392;52.578;13.426;2023-06-22T11:18:08;34.80;78.50
4757;DHT22;2392;52.578;13.426;2023-06-22T11:20:35;34.80;77.60
4757;DHT22;2392;52.578;13.426;2023-06-22T11:23:04;34.80;77.90
4757;DHT22;2392;52.578;13.426;2023-06-22T11:25:32;34.60;77.40
4757;DHT22;2392;52.578;13.426;2023-06-22T11:28:01;34.40;79.20
4757;DHT22;2392;52.578;13.426;2023-06-22T11:30:30;33.90;78.70
4757;DHT22;2392;52.578;13.426;2023-06-22T11:32:58;33.60;78.70
4757;DHT22;2392;52.578;13.426;2023-06-22T11:35:25;33.20;79.00
4757;DHT22;2392;52.578;13.426;2023-06-22T11:37:52;32.70;80.10
4757;DHT22;2392;52.578;13.426;2023-06-22T11:40:19;32.40;80.80
4757;DHT22;2392;52.578;13.426;2023-06-22T11:42:46;32.00;80.90
4757;DHT22;2392;52.578;13.426;2023-06-22T11:45:13;31.80;80.90
4757;DHT22;2392;52.578;13.426;2023-06-22T11:47:42;31.50;82.10
4757;DHT22;2392;52.578;13.426;2023-06-22T11:50:09;31.20;82.30
4757;DHT22;2392;52.578;13.426;2023-06-22T11:52:36;31.10;82.20
4757;DHT22;2392;52.578;13.426;2023-06-22T11:55:04;30.90;83.50
4757;DHT22;2392;52.578;13.426;2023-06-22T11:57:33;30.70;83.30
4757;DHT22;2392;52.578;13.426;2023-06-22T12:00:00;30.80;84.30
4757;DHT22;2392;52.578;13.426;2023-06-22T12:02:32;30.80;85.20
4757;DHT22;2392;52.578;13.426;2023-06-22T12:05:00;30.80;84.20
4757;DHT22;2392;52.578;13.426;2023-06-22T12:07:30;30.90;83.70
4757;DHT22;2392;52.578;13.426;2023-06-22T12:09:57;30.90;83.90
4757;DHT22;2392;52.578;13.426;2023-06-22T12:12:24;30.80;82.00
4757;DHT22;2392;52.578;13.426;2023-06-22T12:14:51;30.80;82.70
4757;DHT22;2392;52.578;13.426;2023-06-22T12:17:18;30.60;82.10
4757;DHT22;2392;52.578;13.426;2023-06-22T12:19:45;30.60;83.50
4757;DHT22;2392;52.578;13.426;2023-06-22T12:22:13;30.50;84.10
4757;DHT22;2392;52.578;13.426;2023-06-22T12:24:40;30.40;83.80
4757;DHT22;2392;52.578;13.426;2023-06-22T12:27:07;30.30;84.10
4757;DHT22;2392;52.578;13.426;2023-06-22T12:29:35;30.30;84.30
4757;DHT22;2392;52.578;13.426;2023-06-22T12:32:03;30.20;84.50
4757;DHT22;2392;52.578;13.426;2023-06-22T12:34:30;30.20;85.00
4757;DHT22;2392;52.578;13.426;2023-06-22T12:36:57;30.20;85.10
4757;DHT22;2392;52.578;13.426;2023-06-22T12:39:25;30.10;85.20
4757;DHT22;2392;52.578;13.426;2023-06-22T12:41:52;30.20;85.30
4757;DHT22;2392;52.578;13.426;2023-06-22T12:44:19;30.20;86.20
4757;DHT22;2392;52.578;13.426;2023-06-22T12:46:46;30.10;84.90
4757;DHT22;2392;52.578;13.426;2023-06-22T12:49:13;30.10;84.50
4757;DHT22;2392;52.578;13.426;2023-06-22T12:51:40;30.10;84.60
4757;DHT22;2392;52.578;13.426;2023-06-22T12:54:08;30.10;84.20
4757;DHT22;2392;52.578;13.426;2023-06-22T12:56:37;30.20;84.60
4757;DHT22;2392;52.578;13.426;2023-06-22T12:59:04;30.30;83.60
4757;DHT22;2392;52.578;13.426;2023-06-22T13:01:32;30.20;84.60
4757;DHT22;2392;52.578;13.426;2023-06-22T13:03:59;30.20;84.60
4757;DHT22;2392;52.578;13.426;2023-06-22T13:06:26;30.30;85.00
4757;DHT22;2392;52.578;13.426;2023-06-22T13:08:53;30.40;84.60
4757;DHT22;2392;52.578;13.426;2023-06-22T13:11:20;30.50;84.30
4757;DHT22;2392;52.578;13.426;2023-06-22T13:13:48;30.60;84.40
4757;DHT22;2392;52.578;13.426;2023-06-22T13:16:15;30.80;83.80
4757;DHT22;2392;52.578;13.426;2023-06-22T13:18:42;30.90;84.60
4757;DHT22;2392;52.578;13.426;2023-06-22T13:21:09;31.10;84.60
4757;DHT22;2392;52.578;13.426;2023-06-22T13:23:36;31.30;84.20
4757;DHT22;2392;52.578;13.426;2023-06-22T13:26:03;31.30;83.40
4757;DHT22;2392;52.578;13.426;2023-06-22T13:28:30;31.40;82.80
4757;DHT22;2392;52.578;13.426;2023-06-22T13:30:59;31.40;82.80
4757;DHT22;2392;52.578;13.426;2023-06-22T13:33:26;31.30;82.50
4757;DHT22;2392;52.578;13.426;2023-06-22T13:35:53;31.10;83.50
4757;DHT22;2392;52.578;13.426;2023-06-22T13:38:20;31.00;83.50
4757;DHT22;2392;52.578;13.426;2023-06-22T13:40:48;31.00;83.20
4757;DHT22;2392;52.578;13.426;2023-06-22T13:43:16;31.00;83.30
4757;DHT22;2392;52.578;13.426;2023-06-22T13:45:43;31.30;83.50
4757;DHT22;2392;52.578;13.426;2023-06-22T13:48:11;31.70;83.10
4757;DHT22;2392;52.578;13.426;2023-06-22T13:50:38;32.30;82.00
4757;DHT22;2392;52.578;13.426;2023-06-22T13:53:05;32.80;81.30
4757;DHT22;2392;52.578;13.426;2023-06-22T13:55:32;33.20;81.20
4757;DHT22;2392;52.578;13.426;2023-06-22T13:57:59;33.20;79.80
4757;DHT22;2392;52.578;13.426;2023-06-22T14:00:26;33.00;79.40
4757;DHT22;2392;52.578;13.426;2023-06-22T14:02:53;33.00;80.30
4757;DHT22;2392;52.578;13.426;2023-06-22T14:05:22;32.70;79.60
4757;DHT22;2392;52.578;13.426;2023-06-22T14:07:49;32.30;79.90
4757;DHT22;2392;52.578;13.426;2023-06-22T14:10:16;32.00;80.90
4757;DHT22;2392;52.578;13.426;2023-06-22T14:12:43;31.70;81.00
4757;DHT22;2392;52.578;13.426;2023-06-22T14:15:10;31.60;82.30
4757;DHT22;2392;52.578;13.426;2023-06-22T14:17:37;31.40;82.40
4757;DHT22;2392;52.578;13.426;2023-06-22T14:20:05;31.30;82.40
4757;DHT22;2392;52.578;13.426;2023-06-22T14:22:35;31.10;83.20
4757;DHT22;2392;52.578;13.426;2023-06-22T14:25:03;30.90;83.20
4757;DHT22;2392;52.578;13.426;2023-06-22T14:27:30;30.80;83.00
4757;DHT22;2392;52.578;13.426;2023-06-22T14:29:57;30.60;83.50
4757;DHT22;2392;52.578;13.426;2023-06-22T14:32:24;30.50;84.40
4757;DHT22;2392;52.578;13.426;2023-06-22T14:34:51;30.40;84.10
4757;DHT22;2392;52.578;13.426;2023-06-22T14:37:18;30.30;84.00
4757;DHT22;2392;52.578;13.426;2023-06-22T14:39:46;30.20;85.00
4757;DHT22;2392;52.578;13.426;2023-06-22T14:42:13;30.10;85.10
4757;DHT22;2392;52.578;13.426;2023-06-22T14:44:40;30.10;85.10
4757;DHT22;2392;52.578;13.426;2023-06-22T14:47:07;30.10;85.40
4757;DHT22;2392;52.578;13.426;2023-06-22T14:49:35;30.20;85.30
4757;DHT22;2392;52.578;13.426;2023-06-22T14:52:02;30.20;85.50
4757;DHT22;2392;52.578;13.426;2023-06-22T14:54:29;30.10;86.40
4757;DHT22;2392;52.578;13.426;2023-06-22T14:56:58;30.10;85.80
4757;DHT22;2392;52.578;13.426;2023-06-22T14:59:25;30.10;85.00
4757;DHT22;2392;52.578;13.426;2023-06-22T15:01:52;30.20;84.90
4757;DHT22;2392;52.578;13.426;2023-06-22T15:04:19;30.20;85.30
4757;DHT22;2392;52.578;13.426;2023-06-22T15:06:45;30.20;85.10
4757;DHT22;2392;52.578;13.426;2023-06-22T15:09:12;30.40;85.60
4757;DHT22;2392;52.578;13.426;2023-06-22T15:11:39;30.40;85.00
4757;DHT22;2392;52.578;13.426;2023-06-22T15:14:08;30.50;85.10
4757;DHT22;2392;52.578;13.426;2023-06-22T15:16:35;30.50;84.90
4757;DHT22;2392;52.578;13.426;2023-06-22T15:19:02;30.40;84.70
4757;DHT22;2392;52.578;13.426;2023-06-22T15:21:29;30.40;85.40
4757;DHT22;2392;52.578;13.426;2023-06-22T15:23:56;30.40;84.70
4757;DHT22;2392;52.578;13.426;2023-06-22T15:26:22;30.40;85.50
4757;DHT22;2392;52.578;13.426;2023-06-22T15:28:50;30.40;84.30
4757;DHT22;2392;52.578;13.426;2023-06-22T15:31:18;30.30;84.00
4757;DHT22;2392;52.578;13.426;2023-06-22T15:33:45;30.30;85.80
4757;DHT22;2392;52.578;13.426;2023-06-22T15:36:12;30.30;85.90
4757;DHT22;2392;52.578;13.426;2023-06-22T15:38:39;30.30;85.50
4757;DHT22;2392;52.578;13.426;2023-06-22T15:41:06;30.30;85.60
4757;DHT22;2392;52.578;13.426;2023-06-22T15:43:33;30.30;86.20
4757;DHT22;2392;52.578;13.426;2023-06-22T15:46:00;30.30;86.40
4757;DHT22;2392;52.578;13.426;2023-06-22T15:48:29;30.20;86.10